Etusivu
METAR-TAF:

METAR-TAF

Lentoasemat :

Ohio State University Airport

Columbus, Ohio, Yhdysvallat

Leveyspiiri: 40-04-41N, Pituuspiiri: 083-04-41W, korkeus merenpinnasta: 275 m

Tämänhetkinen sää

Tämä raportti tehtiin 43 minuuttia sitten, kello 16.53 UTC
Tuuli 9 kn lounaasta
Lämpötila 6°C
Kosteus 31%
Ilmanpaine 1028 hPa
Näkyvyys: 16.1 km
selkeää

METAR: KOSU 221653Z 23009KT 10SM CLR 06/M10 A3036 RMK AO2 SLP289 T00561100

Aika: 12:36 (17:36 UTC)


TAF: puuttuu

Säähavainnot ja -ennusteet yli 4000 lentoasemalta (METAR- ja TAF-raportit).

Käytössä olevat sääasemat on merkitty karttaan keltaisilla ja punaisilla pisteillä.

Aseta hiiri pisteen päälle nähdäksesi sääaseman nimen.

Klikkaa sitten nähdäksesi säähavainnot ja -ennusteet.

Kartan vaihtaminen: klikkaa mustalla rastilla varustettuja vihreitä pisteitä, niin voit zoomata sisään; viivalla varustettua vihreää pistettä, niin voit zoomata ulos tai vihreitä nuolia, niin pääset viereisille kartoille.


METAR-TAF: